createdAt,value
2022-10-29T00:00:54.798Z,101636.31
2022-10-29T00:03:22.347Z,101611.72
2022-10-29T00:05:58.498Z,101622.53
2022-10-29T00:08:25.736Z,101623.97
2022-10-29T00:10:52.520Z,101625.88
2022-10-29T00:13:19.225Z,101615.38
2022-10-29T00:15:45.944Z,101606.28
2022-10-29T00:18:12.646Z,101608.31
2022-10-29T00:20:39.267Z,101613.56
2022-10-29T00:23:07.366Z,101616.84
2022-10-29T00:25:34.042Z,101573.72
2022-10-29T00:28:00.749Z,101601.34
2022-10-29T00:30:27.489Z,101618.13
2022-10-29T00:32:54.403Z,101578.78
2022-10-29T00:35:21.155Z,101574.31
2022-10-29T00:37:47.897Z,101578.13
2022-10-29T00:40:16.129Z,101611.56
2022-10-29T00:42:42.851Z,101584.56
2022-10-29T00:45:18.708Z,101565.78
2022-10-29T00:47:50.141Z,101591.78
2022-10-29T00:50:17.606Z,101609.66
2022-10-29T00:52:47.942Z,101583.53
2022-10-29T00:55:17.210Z,101553.84
2022-10-29T00:57:47.827Z,101585.66
2022-10-29T01:00:15.240Z,101586.66
2022-10-29T01:02:43.711Z,101589.16
2022-10-29T01:05:12.195Z,101592.22
2022-10-29T01:07:39.578Z,101583.38
2022-10-29T01:10:07.334Z,101621.88
2022-10-29T01:12:55.075Z,101605.53
2022-10-29T01:15:29.114Z,101608.66
2022-10-29T01:18:07.959Z,101578.84
2022-10-29T01:21:01.625Z,101572.88
2022-10-29T01:24:15.373Z,101553.59
2022-10-29T01:27:19.692Z,101597.03
2022-10-29T01:30:06.112Z,101597.97
2022-10-29T01:32:43.283Z,101565.06
2022-10-29T01:35:15.499Z,101599.06
2022-10-29T01:37:54.068Z,101561.63
2022-10-29T01:40:26.145Z,101524.44
2022-10-29T01:42:58.244Z,101566.19
2022-10-29T01:45:30.672Z,101563.56
2022-10-29T01:48:04.479Z,101561.97
2022-10-29T01:50:32.406Z,101591.88
2022-10-29T01:53:00.571Z,101572.66
2022-10-29T01:55:31.278Z,101590.75
2022-10-29T01:57:58.281Z,101570.72
2022-10-29T02:00:25.429Z,101547.75
2022-10-29T02:03:06.348Z,101531.78
2022-10-29T02:05:38.114Z,101582.00
2022-10-29T02:08:16.908Z,101588.09
2022-10-29T02:10:48.650Z,101515.06
2022-10-29T02:13:19.279Z,101573.34
2022-10-29T02:15:50.208Z,101581.50
2022-10-29T02:18:18.548Z,101577.59
2022-10-29T02:20:46.385Z,101550.31
2022-10-29T02:23:15.168Z,101565.59
2022-10-29T02:25:41.935Z,101556.72
2022-10-29T02:28:08.781Z,101575.53
2022-10-29T02:30:35.575Z,101571.75
2022-10-29T02:33:02.237Z,101551.41
2022-10-29T02:35:30.381Z,101564.53
2022-10-29T02:37:57.064Z,101566.66
2022-10-29T02:40:23.675Z,101564.66
2022-10-29T02:42:50.369Z,101519.28
2022-10-29T02:45:17.347Z,101552.56
2022-10-29T02:47:44.047Z,101535.28
2022-10-29T02:50:10.760Z,101558.88
2022-10-29T02:52:40.140Z,101550.06
2022-10-29T02:55:07.325Z,101547.28
2022-10-29T02:57:34.053Z,101530.31
2022-10-29T03:00:00.835Z,101553.44
2022-10-29T03:02:27.588Z,101549.84
2022-10-29T03:04:54.318Z,101549.34
2022-10-29T03:07:20.975Z,101516.97
2022-10-29T03:09:49.102Z,101536.44
2022-10-29T03:12:15.800Z,101504.88
2022-10-29T03:14:42.461Z,101509.41
2022-10-29T03:17:09.095Z,101545.63
2022-10-29T03:19:35.850Z,101524.69
2022-10-29T03:22:02.538Z,101547.03
2022-10-29T03:24:29.235Z,101489.53
2022-10-29T03:26:57.290Z,101543.13
2022-10-29T03:29:23.987Z,101487.63
2022-10-29T03:31:50.687Z,101541.38
2022-10-29T03:34:17.344Z,101539.38
2022-10-29T03:36:44.295Z,101534.56
2022-10-29T03:39:10.972Z,101533.38
2022-10-29T03:41:37.803Z,101539.13
2022-10-29T03:44:06.018Z,101515.94
2022-10-29T03:46:32.914Z,101516.09
2022-10-29T03:48:59.645Z,101547.03
2022-10-29T03:51:26.323Z,101494.25
2022-10-29T03:53:52.982Z,101505.50
2022-10-29T03:56:19.663Z,101531.09
2022-10-29T03:58:46.292Z,101532.81
2022-10-29T04:01:14.533Z,101508.88
2022-10-29T04:03:41.265Z,101514.97
2022-10-29T04:06:14.127Z,101539.59
2022-10-29T04:08:41.534Z,101501.94
2022-10-29T04:11:11.414Z,101538.25
2022-10-29T04:13:38.103Z,101523.69
2022-10-29T04:16:05.318Z,101507.56
2022-10-29T04:18:33.605Z,101538.72
2022-10-29T04:29:22.658Z,101531.44
2022-10-29T04:31:49.666Z,101530.91
2022-10-29T04:34:17.933Z,101548.81
2022-10-29T04:36:44.600Z,101554.25
2022-10-29T04:39:11.290Z,101565.34
2022-10-29T04:41:38.069Z,101544.72
2022-10-29T04:44:05.047Z,101558.56
2022-10-29T04:46:31.705Z,101519.22
2022-10-29T04:48:58.445Z,101524.88
2022-10-29T04:51:27.042Z,101569.78
2022-10-29T04:53:53.700Z,101530.16
2022-10-29T04:56:20.420Z,101551.59
2022-10-29T04:58:47.141Z,101567.56
2022-10-29T05:01:13.974Z,101580.25
2022-10-29T05:03:40.880Z,101580.03
2022-10-29T05:06:07.713Z,101522.50
2022-10-29T05:08:35.807Z,101530.78
2022-10-29T05:11:03.068Z,101543.44
2022-10-29T05:13:29.726Z,101524.41
2022-10-29T05:15:56.506Z,101544.56
2022-10-29T05:18:23.586Z,101569.81
2022-10-29T05:20:53.127Z,101561.81
2022-10-29T05:23:20.528Z,101545.69
2022-10-29T05:25:49.068Z,101534.91
2022-10-29T05:28:17.723Z,101579.66
2022-10-29T05:30:44.852Z,101574.81
2022-10-29T05:33:14.249Z,101546.63
2022-10-29T05:35:41.437Z,101576.38
2022-10-29T05:38:10.350Z,101571.59
2022-10-29T05:40:37.238Z,101536.13
2022-10-29T05:43:05.743Z,101549.28
2022-10-29T05:45:32.369Z,101555.44
2022-10-29T05:48:00.783Z,101564.78
2022-10-29T05:50:28.478Z,101563.09
2022-10-29T05:52:56.174Z,101573.72
2022-10-29T05:55:23.154Z,101570.00
2022-10-29T05:57:49.917Z,101511.88
2022-10-29T06:00:18.225Z,101556.63
2022-10-29T06:02:45.262Z,101532.91
2022-10-29T06:05:12.050Z,101527.44
2022-10-29T06:07:38.907Z,101565.84
2022-10-29T06:10:06.949Z,101558.25
2022-10-29T06:12:34.968Z,101560.25
2022-10-29T06:15:01.942Z,101542.91
2022-10-29T06:17:30.153Z,101558.31
2022-10-29T06:19:57.006Z,101564.88
2022-10-29T06:22:23.689Z,101546.94
2022-10-29T06:24:50.341Z,101572.56
2022-10-29T06:27:17.065Z,101514.25
2022-10-29T06:29:43.733Z,101554.97
2022-10-29T06:32:10.393Z,101560.06
2022-10-29T06:34:38.479Z,101555.13
2022-10-29T06:37:05.259Z,101571.03
2022-10-29T06:39:32.038Z,101570.16
2022-10-29T06:41:58.754Z,101574.84
2022-10-29T06:44:25.530Z,101563.66
2022-10-29T06:46:52.164Z,101538.81
2022-10-29T06:49:18.886Z,101570.00
2022-10-29T06:51:47.175Z,101571.03
2022-10-29T06:54:14.162Z,101572.88
2022-10-29T06:56:41.122Z,101585.50
2022-10-29T06:59:08.050Z,101566.34
2022-10-29T07:01:34.820Z,101589.34
2022-10-29T07:04:01.961Z,101581.13
2022-10-29T07:06:32.261Z,101586.94
2022-10-29T07:09:00.391Z,101558.16
2022-10-29T07:11:27.109Z,101596.72
2022-10-29T07:13:53.820Z,101561.22
2022-10-29T07:16:20.536Z,101557.53
2022-10-29T07:18:47.284Z,101533.13
2022-10-29T07:21:14.011Z,101569.38
2022-10-29T07:23:40.757Z,101582.28
2022-10-29T07:26:08.921Z,101554.13
2022-10-29T07:28:35.792Z,101574.09
2022-10-29T07:31:02.520Z,101551.56
2022-10-29T07:33:29.536Z,101581.50
2022-10-29T07:35:57.558Z,101590.47
2022-10-29T07:38:24.601Z,101585.03
2022-10-29T07:40:51.739Z,101605.53
2022-10-29T07:43:21.331Z,101560.00
2022-10-29T07:45:49.857Z,101609.19
2022-10-29T07:48:17.671Z,101575.75
2022-10-29T07:50:44.350Z,101586.81
2022-10-29T07:53:11.370Z,101573.75
2022-10-29T07:55:38.525Z,101605.22
2022-10-29T07:58:12.350Z,101583.75
2022-10-29T08:00:50.756Z,101561.50
2022-10-29T08:03:17.593Z,101561.31
2022-10-29T08:05:44.556Z,101608.16
2022-10-29T08:08:11.244Z,101599.75
2022-10-29T08:10:39.970Z,101564.25
2022-10-29T08:13:07.053Z,101582.16
2022-10-29T08:15:34.673Z,101593.25
2022-10-29T08:18:03.360Z,101554.78
2022-10-29T08:20:30.140Z,101593.47
2022-10-29T08:22:59.870Z,101545.88
2022-10-29T08:25:27.123Z,101567.28
2022-10-29T08:28:01.854Z,101580.84
2022-10-29T08:30:29.489Z,101574.94
2022-10-29T08:32:57.809Z,101573.88
2022-10-29T08:35:28.322Z,101507.75
2022-10-29T08:37:55.924Z,101510.25
2022-10-29T08:40:32.343Z,101581.63
2022-10-29T08:46:31.887Z,101548.50
2022-10-29T08:49:18.784Z,101575.38
2022-10-29T08:51:53.704Z,101571.34
2022-10-29T08:54:30.960Z,101562.03
2022-10-29T08:57:02.518Z,101530.00
2022-10-29T08:59:35.858Z,101499.81
2022-10-29T09:02:02.903Z,101543.84
2022-10-29T09:04:34.190Z,101563.66
2022-10-29T09:07:28.927Z,101554.00
2022-10-29T09:10:04.289Z,101555.34
2022-10-29T09:12:52.282Z,101554.91
2022-10-29T09:15:33.842Z,101525.88
2022-10-29T09:18:14.897Z,101553.47
2022-10-29T09:20:55.184Z,101509.50
2022-10-29T09:23:38.306Z,101499.00
2022-10-29T09:26:16.114Z,101521.16
2022-10-29T09:28:55.496Z,101550.16
2022-10-29T09:31:27.734Z,101548.59
2022-10-29T09:34:00.884Z,101506.53
2022-10-29T09:36:31.966Z,101485.97
2022-10-29T09:39:13.463Z,101526.59
2022-10-29T09:41:41.394Z,101497.16
2022-10-29T09:44:19.026Z,101487.63
2022-10-29T09:46:55.695Z,101491.09
2022-10-29T09:49:45.198Z,101567.91
2022-10-29T09:52:16.745Z,101502.31
2022-10-29T09:54:46.118Z,101484.91
2022-10-29T09:57:22.352Z,101489.25
2022-10-29T09:59:56.402Z,101537.66
2022-10-29T10:02:33.174Z,101548.09
2022-10-29T10:05:12.478Z,101510.34
2022-10-29T10:07:39.637Z,101538.97
2022-10-29T10:10:21.080Z,101532.56
2022-10-29T10:12:49.898Z,101567.47
2022-10-29T10:15:25.425Z,101512.44
2022-10-29T10:18:02.734Z,101544.34
2022-10-29T10:20:38.572Z,101461.38
2022-10-29T10:23:25.854Z,101506.84
2022-10-29T10:25:58.919Z,101523.63
2022-10-29T10:28:30.723Z,101530.63
2022-10-29T10:31:08.130Z,101488.69
2022-10-29T10:33:36.909Z,101509.28
2022-10-29T10:36:06.037Z,101487.28
2022-10-29T10:38:39.343Z,101440.00
2022-10-29T10:41:10.619Z,101518.94
2022-10-29T10:43:47.917Z,101519.75
2022-10-29T10:46:19.940Z,101510.97
2022-10-29T10:48:57.767Z,101499.16
2022-10-29T10:51:28.040Z,101493.78
2022-10-29T10:53:54.932Z,101509.66
2022-10-29T10:56:23.323Z,101439.72
2022-10-29T10:59:03.506Z,101500.94
2022-10-29T11:01:35.216Z,101477.63
2022-10-29T11:04:10.808Z,101432.09
2022-10-29T11:06:41.608Z,101496.56
2022-10-29T11:09:18.573Z,101468.63
2022-10-29T11:11:57.923Z,101488.75
2022-10-29T11:14:31.565Z,101474.41
2022-10-29T11:17:01.316Z,101492.72
2022-10-29T11:19:35.925Z,101496.72
2022-10-29T11:22:12.209Z,101484.06
2022-10-29T11:24:53.002Z,101491.38
2022-10-29T11:27:32.288Z,101461.63
2022-10-29T11:30:04.828Z,101445.16
2022-10-29T11:32:44.750Z,101465.72
2022-10-29T11:35:32.813Z,101436.75
2022-10-29T11:38:11.386Z,101467.00
2022-10-29T11:40:44.867Z,101466.09
2022-10-29T11:43:31.379Z,101454.34
2022-10-29T11:46:03.453Z,101475.66
2022-10-29T11:48:54.629Z,101457.16
2022-10-29T11:51:31.063Z,101429.66
2022-10-29T11:54:18.195Z,101450.72
2022-10-29T11:56:52.736Z,101415.31
2022-10-29T11:59:37.998Z,101414.22
2022-10-29T12:02:20.425Z,101432.13
2022-10-29T12:04:53.936Z,101435.25
2022-10-29T12:07:34.954Z,101441.25
2022-10-29T12:10:19.323Z,101403.75
2022-10-29T12:12:53.507Z,101429.41
2022-10-29T12:15:26.936Z,101399.25
2022-10-29T12:18:06.158Z,101391.81
2022-10-29T12:20:36.148Z,101420.50
2022-10-29T12:23:15.665Z,101373.88
2022-10-29T12:25:54.647Z,101379.25
2022-10-29T12:28:29.915Z,101380.41
2022-10-29T12:31:13.075Z,101389.84
2022-10-29T12:33:48.197Z,101401.66
2022-10-29T12:36:23.600Z,101401.47
2022-10-29T12:38:53.606Z,101401.81
2022-10-29T12:41:24.065Z,101403.47
2022-10-29T12:43:51.882Z,101396.00
2022-10-29T12:46:33.081Z,101392.84
2022-10-29T12:49:18.757Z,101394.78
2022-10-29T12:51:53.426Z,101379.00
2022-10-29T12:54:28.920Z,101369.84
2022-10-29T12:56:56.028Z,101390.53
2022-10-29T12:59:42.700Z,101366.53
2022-10-29T13:02:42.239Z,101324.28
2022-10-29T13:05:39.563Z,101382.75
2022-10-29T13:08:32.902Z,101355.28
2022-10-29T13:10:59.760Z,101376.63
2022-10-29T13:13:59.638Z,101368.69
2022-10-29T13:16:29.691Z,101365.75
2022-10-29T13:19:22.575Z,101370.03
2022-10-29T13:22:35.272Z,101368.03
2022-10-29T13:25:44.618Z,101364.09
2022-10-29T13:28:48.647Z,101361.50
2022-10-29T13:31:59.479Z,101359.53
2022-10-29T13:34:50.612Z,101356.50
2022-10-29T13:37:57.209Z,101303.25
2022-10-29T13:41:03.152Z,101354.34
2022-10-29T13:43:40.019Z,101350.56
2022-10-29T13:46:28.457Z,101347.16
2022-10-29T13:49:11.402Z,101348.13
2022-10-29T13:51:49.838Z,101351.63
2022-10-29T13:54:23.104Z,101340.41
2022-10-29T13:56:54.898Z,101270.41
2022-10-29T13:59:41.153Z,101295.13
2022-10-29T14:02:23.614Z,101321.50
2022-10-29T14:04:55.635Z,101308.59
2022-10-29T14:07:47.397Z,101267.53
2022-10-29T14:10:18.834Z,101251.81
2022-10-29T14:12:48.595Z,101299.59
2022-10-29T14:15:42.066Z,101327.16
2022-10-29T14:18:18.563Z,101300.56
2022-10-29T14:20:55.243Z,101277.97
2022-10-29T14:23:23.798Z,101269.63
2022-10-29T14:25:52.001Z,101253.53
2022-10-29T14:28:23.780Z,101291.59
2022-10-29T14:31:01.859Z,101317.09
2022-10-29T14:33:30.753Z,101315.91
2022-10-29T14:36:05.543Z,101317.63
2022-10-29T14:38:39.364Z,101314.09
2022-10-29T14:41:06.126Z,101293.38
2022-10-29T14:43:55.333Z,101324.78
2022-10-29T14:46:34.695Z,101320.75
2022-10-29T14:49:18.009Z,101317.19
2022-10-29T14:51:51.758Z,101305.41
2022-10-29T14:54:23.923Z,101314.13
2022-10-29T14:56:59.072Z,101310.38
2022-10-29T14:59:29.390Z,101287.41
2022-10-29T15:02:05.597Z,101313.78
2022-10-29T15:04:49.565Z,101269.91
2022-10-29T15:07:28.867Z,101272.91
2022-10-29T15:10:38.305Z,101322.69
2022-10-29T15:13:41.079Z,101318.72
2022-10-29T15:16:27.332Z,101314.44
2022-10-29T15:18:55.670Z,101316.81
2022-10-29T15:21:23.729Z,101305.06
2022-10-29T15:23:55.478Z,101320.59
2022-10-29T15:26:22.279Z,101320.38
2022-10-29T15:28:54.525Z,101320.09
2022-10-29T15:31:34.202Z,101278.41
2022-10-29T15:34:08.056Z,101314.81
2022-10-29T15:36:48.542Z,101320.00
2022-10-29T15:39:20.940Z,101314.03
2022-10-29T15:41:49.584Z,101329.34
2022-10-29T15:44:39.093Z,101325.06
2022-10-29T15:47:26.782Z,101314.25
2022-10-29T15:49:53.498Z,101292.59
2022-10-29T15:52:24.597Z,101327.78
2022-10-29T15:54:51.258Z,101330.06
2022-10-29T15:57:18.111Z,101259.75
2022-10-29T15:59:46.277Z,101324.19
2022-10-29T16:02:14.552Z,101289.56
2022-10-29T16:04:41.330Z,101325.44
2022-10-29T16:07:11.693Z,101323.69
2022-10-29T16:09:42.670Z,101334.19
2022-10-29T16:12:10.351Z,101294.97
2022-10-29T16:14:37.217Z,101284.38
2022-10-29T16:17:12.085Z,101316.03
2022-10-29T16:19:38.735Z,101287.34
2022-10-29T16:22:05.452Z,101283.50
2022-10-29T16:24:32.112Z,101327.16
2022-10-29T16:26:58.751Z,101330.25
2022-10-29T16:29:25.387Z,101320.31
2022-10-29T16:31:52.190Z,101329.72
2022-10-29T16:34:27.226Z,101330.06
2022-10-29T16:36:53.944Z,101325.88
2022-10-29T16:39:20.625Z,101331.03
2022-10-29T16:41:47.345Z,101345.19
2022-10-29T16:44:14.100Z,101337.63
2022-10-29T16:46:40.853Z,101314.19
2022-10-29T16:49:07.479Z,101315.22
2022-10-29T16:51:35.607Z,101326.13
2022-10-29T16:54:02.309Z,101300.47
2022-10-29T16:56:29.061Z,101328.69
2022-10-29T16:59:01.602Z,101329.28
2022-10-29T17:01:28.780Z,101339.63
2022-10-29T17:03:55.541Z,101324.34
2022-10-29T17:06:22.253Z,101306.13
2022-10-29T17:08:50.397Z,101316.56
2022-10-29T17:11:17.125Z,101328.13
2022-10-29T17:13:43.903Z,101314.97
2022-10-29T17:16:12.517Z,101315.84
2022-10-29T17:18:42.321Z,101315.78
2022-10-29T17:21:09.029Z,101333.69
2022-10-29T17:23:35.769Z,101275.50
2022-10-29T17:26:04.076Z,101318.19
2022-10-29T17:28:30.756Z,101315.56
2022-10-29T17:30:57.439Z,101312.34
2022-10-29T17:33:24.070Z,101348.81
2022-10-29T17:36:00.855Z,101351.91
2022-10-29T17:38:27.535Z,101365.47
2022-10-29T17:40:54.190Z,101362.88
2022-10-29T17:43:22.522Z,101309.63
2022-10-29T17:45:49.229Z,101357.00
2022-10-29T17:48:17.783Z,101362.09
2022-10-29T17:50:51.841Z,101369.31
2022-10-29T17:53:18.483Z,101368.16
2022-10-29T17:55:45.110Z,101352.91
2022-10-29T17:58:15.532Z,101349.59
2022-10-29T18:00:46.677Z,101369.53
2022-10-29T18:03:13.744Z,101352.56
2022-10-29T18:05:40.446Z,101356.38
2022-10-29T18:08:07.234Z,101357.53
2022-10-29T18:10:34.560Z,101356.28
2022-10-29T18:13:01.377Z,101359.78
2022-10-29T18:15:28.425Z,101355.75
2022-10-29T18:17:58.916Z,101345.06
2022-10-29T18:20:25.667Z,101355.75
2022-10-29T18:22:55.894Z,101341.34
2022-10-29T18:25:22.987Z,101328.81
2022-10-29T18:27:56.722Z,101331.53
2022-10-29T18:30:23.640Z,101330.09
2022-10-29T18:32:50.440Z,101313.56
2022-10-29T18:35:18.626Z,101311.06
2022-10-29T18:37:46.070Z,101333.56
2022-10-29T18:40:13.004Z,101330.53
2022-10-29T18:42:39.707Z,101331.09
2022-10-29T18:45:07.594Z,101330.59
2022-10-29T18:47:34.238Z,101310.41
2022-10-29T18:50:00.943Z,101306.56
2022-10-29T18:52:28.997Z,101306.47
2022-10-29T18:54:55.793Z,101323.63
2022-10-29T18:57:22.517Z,101283.38
2022-10-29T18:59:49.255Z,101330.28
2022-10-29T19:02:16.230Z,101309.69
2022-10-29T19:04:43.152Z,101322.56
2022-10-29T19:07:09.826Z,101334.63
2022-10-29T19:09:37.875Z,101297.97
2022-10-29T19:12:04.955Z,101337.22
2022-10-29T19:14:31.651Z,101339.25
2022-10-29T19:16:58.319Z,101303.41
2022-10-29T19:19:25.067Z,101336.22
2022-10-29T19:21:51.771Z,101338.28
2022-10-29T19:24:18.615Z,101321.94
2022-10-29T19:26:47.017Z,101334.53
2022-10-29T19:29:14.045Z,101307.03
2022-10-29T19:31:40.902Z,101328.16
2022-10-29T19:34:08.508Z,101301.06
2022-10-29T19:36:37.404Z,101354.63
2022-10-29T19:39:04.311Z,101354.56
2022-10-29T19:41:31.070Z,101340.31
2022-10-29T19:44:00.274Z,101338.84
2022-10-29T19:46:27.157Z,101337.28
2022-10-29T19:48:55.432Z,101336.47
2022-10-29T19:51:23.209Z,101337.16
2022-10-29T19:53:50.481Z,101301.94
2022-10-29T19:56:17.844Z,101299.28
2022-10-29T19:58:44.561Z,101339.72
2022-10-29T20:01:14.419Z,101324.38
2022-10-29T20:03:41.268Z,101333.50
2022-10-29T20:06:08.732Z,101342.38
2022-10-29T20:08:35.648Z,101322.97
2022-10-29T20:11:02.366Z,101325.84
2022-10-29T20:13:29.020Z,101309.50
2022-10-29T20:15:55.704Z,101331.69
2022-10-29T20:18:24.000Z,101334.16
2022-10-29T20:20:54.553Z,101345.50
2022-10-29T20:23:21.427Z,101343.03
2022-10-29T20:25:48.113Z,101309.84
2022-10-29T20:28:15.025Z,101340.06
2022-10-29T20:30:41.667Z,101339.69
2022-10-29T20:33:08.318Z,101351.84
2022-10-29T20:35:36.420Z,101357.28
2022-10-29T20:38:03.330Z,101358.53
2022-10-29T20:40:30.043Z,101370.63
2022-10-29T20:42:56.815Z,101343.22
2022-10-29T20:45:23.683Z,101328.84
2022-10-29T20:47:50.323Z,101356.94
2022-10-29T20:50:17.061Z,101341.31
2022-10-29T20:52:59.147Z,101296.63
2022-10-29T20:55:25.951Z,101323.91
2022-10-29T20:57:52.623Z,101290.38
2022-10-29T21:00:19.500Z,101313.91
2022-10-29T21:02:46.257Z,101342.91
2022-10-29T21:05:13.020Z,101327.66
2022-10-29T21:07:39.849Z,101332.72
2022-10-29T21:10:09.373Z,101319.28
2022-10-29T21:12:36.073Z,101309.75
2022-10-29T21:15:02.821Z,101319.06
2022-10-29T21:17:29.556Z,101318.63
2022-10-29T21:19:56.243Z,101290.50
2022-10-29T21:22:22.944Z,101274.94
2022-10-29T21:24:49.631Z,101290.97
2022-10-29T21:27:17.786Z,101277.69
2022-10-29T21:29:44.454Z,101322.66
2022-10-29T21:32:14.347Z,101320.34
2022-10-29T21:34:59.112Z,101323.97
2022-10-29T21:37:26.278Z,101314.66
2022-10-29T21:39:52.970Z,101323.06
2022-10-29T21:42:21.244Z,101287.44
2022-10-29T21:44:47.917Z,101296.13
2022-10-29T21:47:16.758Z,101322.59
2022-10-29T21:49:46.911Z,101334.47
2022-10-29T21:52:16.348Z,101310.94
2022-10-29T21:54:43.109Z,101271.53
2022-10-29T21:57:15.874Z,101335.06
2022-10-29T21:59:58.254Z,101333.56
2022-10-29T22:02:25.258Z,101286.09
2022-10-29T22:04:52.040Z,101266.97
2022-10-29T22:07:30.808Z,101275.94
2022-10-29T22:09:57.599Z,101309.72
2022-10-29T22:12:24.348Z,101311.44
2022-10-29T22:14:51.112Z,101309.53
2022-10-29T22:17:19.292Z,101265.06
2022-10-29T22:19:46.203Z,101275.47
2022-10-29T22:22:13.079Z,101324.91
2022-10-29T22:24:39.828Z,101288.81
2022-10-29T22:27:07.753Z,101279.59
2022-10-29T22:29:38.872Z,101306.56
2022-10-29T23:17:05.655Z,101290.31
2022-10-29T23:19:32.290Z,101286.06
2022-10-29T23:21:58.916Z,101250.47
2022-10-29T23:24:25.676Z,101236.28
2022-10-29T23:26:52.371Z,101277.78
2022-10-29T23:29:30.320Z,101273.94
2022-10-29T23:31:56.988Z,101272.56
2022-10-29T23:34:25.054Z,101247.63
2022-10-29T23:39:19.264Z,101239.81
2022-10-29T23:41:45.913Z,101205.84
2022-10-29T23:44:12.633Z,101214.94
2022-10-29T23:46:39.311Z,101199.19
2022-10-29T23:49:05.987Z,101234.66
2022-10-29T23:54:01.738Z,101205.94
2022-10-29T23:56:28.401Z,101249.56
2022-10-29T23:58:55.298Z,101226.16
